createdAt,value
2019-05-19T00:00:53.292Z,71.07
2019-05-19T00:03:26.112Z,71.15
2019-05-19T00:05:59.974Z,71.47
2019-05-19T00:08:32.776Z,71.37
2019-05-19T00:11:05.727Z,71.46
2019-05-19T00:13:38.594Z,71.52
2019-05-19T00:16:12.375Z,71.67
2019-05-19T00:18:45.229Z,71.85
2019-05-19T00:21:18.153Z,71.72
2019-05-19T00:23:51.417Z,71.91
2019-05-19T00:26:24.556Z,71.92
2019-05-19T00:28:57.438Z,71.81
2019-05-19T00:31:30.271Z,72.13
2019-05-19T00:34:03.263Z,72.28
2019-05-19T00:36:36.454Z,72.33
2019-05-19T00:39:09.361Z,72.33
2019-05-19T00:41:42.167Z,72.18
2019-05-19T00:44:15.266Z,72.10
2019-05-19T00:46:49.371Z,72.12
2019-05-19T00:49:22.234Z,72.04
2019-05-19T00:51:55.037Z,72.15
2019-05-19T00:54:28.062Z,71.97
2019-05-19T00:57:02.158Z,71.56
2019-05-19T00:59:36.769Z,71.54
2019-05-19T01:02:09.579Z,71.60
2019-05-19T01:04:42.733Z,71.89
2019-05-19T01:07:15.618Z,71.59
2019-05-19T01:09:48.528Z,71.79
2019-05-19T01:12:21.438Z,71.83
2019-05-19T01:14:54.326Z,71.89
2019-05-19T01:17:28.102Z,71.76
2019-05-19T01:20:01.028Z,71.84
2019-05-19T01:22:35.136Z,71.90
2019-05-19T01:25:08.671Z,72.16
2019-05-19T01:27:41.581Z,72.19
2019-05-19T01:30:17.073Z,72.00
2019-05-19T01:32:49.880Z,72.27
2019-05-19T01:35:22.713Z,72.74
2019-05-19T01:37:55.590Z,72.93
2019-05-19T01:40:28.438Z,73.17
2019-05-19T01:43:01.310Z,73.41
2019-05-19T01:45:34.263Z,73.86
2019-05-19T01:48:07.061Z,73.53
2019-05-19T01:50:40.294Z,73.53
2019-05-19T01:53:13.127Z,73.76
2019-05-19T01:55:47.038Z,73.57
2019-05-19T01:58:20.126Z,73.72
2019-05-19T02:00:52.935Z,73.77
2019-05-19T02:03:25.814Z,73.97
2019-05-19T02:06:00.099Z,74.29
2019-05-19T02:08:33.018Z,74.40
2019-05-19T02:11:05.852Z,74.78
2019-05-19T02:13:38.653Z,74.89
2019-05-19T02:16:11.542Z,75.63
2019-05-19T02:18:44.335Z,75.91
2019-05-19T02:21:17.296Z,75.85
2019-05-19T02:23:50.138Z,76.31
2019-05-19T02:26:23.123Z,76.48
2019-05-19T02:28:55.954Z,76.84
2019-05-19T02:31:28.789Z,77.08
2019-05-19T02:34:02.510Z,77.12
2019-05-19T02:36:35.329Z,77.24
2019-05-19T02:39:08.898Z,77.13
2019-05-19T02:41:44.077Z,77.20
2019-05-19T02:44:19.026Z,76.50
2019-05-19T02:46:55.121Z,76.56
2019-05-19T02:49:30.761Z,76.75
2019-05-19T02:52:05.599Z,77.26
2019-05-19T02:54:38.864Z,77.59
2019-05-19T02:57:11.989Z,77.90
2019-05-19T02:59:46.390Z,78.73
2019-05-19T03:02:19.227Z,79.16
2019-05-19T03:04:52.156Z,79.39
2019-05-19T03:07:25.037Z,80.39
2019-05-19T03:09:57.956Z,81.07
2019-05-19T03:12:30.758Z,81.26
2019-05-19T03:15:03.654Z,81.26
2019-05-19T03:17:36.843Z,81.49
2019-05-19T03:20:09.799Z,81.94
2019-05-19T03:22:42.603Z,82.44
2019-05-19T03:25:15.470Z,81.92
2019-05-19T03:27:48.288Z,82.33
2019-05-19T03:30:39.056Z,82.45
2019-05-19T03:33:12.705Z,82.47
2019-05-19T03:35:45.748Z,82.23
2019-05-19T03:38:18.954Z,82.42
2019-05-19T03:40:51.829Z,82.23
2019-05-19T03:43:24.656Z,81.87
2019-05-19T03:45:57.467Z,81.79
2019-05-19T03:48:30.305Z,82.36
2019-05-19T03:51:03.133Z,82.89
2019-05-19T03:53:36.462Z,83.30
2019-05-19T03:56:09.275Z,83.43
2019-05-19T03:58:42.132Z,83.31
2019-05-19T04:01:14.952Z,83.16
2019-05-19T04:03:47.795Z,82.49
2019-05-19T04:06:20.633Z,81.92
2019-05-19T04:08:53.453Z,81.24
2019-05-19T04:11:26.293Z,80.45
2019-05-19T04:13:59.155Z,79.70
2019-05-19T04:16:32.044Z,78.55
2019-05-19T04:19:04.970Z,77.67
2019-05-19T04:21:48.344Z,77.18
2019-05-19T04:24:12.341Z,76.63
2019-05-19T04:26:45.148Z,76.97
2019-05-19T04:29:18.001Z,77.92
2019-05-19T04:31:50.872Z,78.59
2019-05-19T04:34:23.757Z,79.02
2019-05-19T04:36:56.589Z,78.94
2019-05-19T04:39:29.604Z,78.98
2019-05-19T04:42:02.519Z,79.29
2019-05-19T04:44:35.478Z,79.60
2019-05-19T04:47:08.387Z,79.88
2019-05-19T04:49:42.753Z,80.11
2019-05-19T04:52:17.150Z,79.88
2019-05-19T04:54:50.538Z,79.87
2019-05-19T04:57:23.539Z,80.04
2019-05-19T04:59:56.353Z,79.63
2019-05-19T05:02:29.145Z,79.76
2019-05-19T05:05:02.060Z,80.05
2019-05-19T05:07:35.016Z,80.30
2019-05-19T05:10:07.852Z,80.76
2019-05-19T05:12:40.720Z,81.07
2019-05-19T05:15:13.516Z,81.42
2019-05-19T05:17:46.367Z,81.40
2019-05-19T05:20:19.277Z,81.69
2019-05-19T05:22:52.068Z,81.83
2019-05-19T05:25:24.956Z,81.81
2019-05-19T05:27:57.749Z,81.76
2019-05-19T05:30:30.575Z,81.95
2019-05-19T05:33:03.385Z,82.15
2019-05-19T05:35:36.233Z,82.04
2019-05-19T05:38:09.080Z,82.03
2019-05-19T05:40:41.946Z,81.96
2019-05-19T05:43:14.760Z,81.58
2019-05-19T05:45:47.585Z,81.90
2019-05-19T05:48:21.434Z,81.63
2019-05-19T05:50:54.277Z,81.46
2019-05-19T05:53:27.179Z,81.08
2019-05-19T05:56:00.021Z,80.86
2019-05-19T05:58:32.906Z,80.79
2019-05-19T06:01:05.919Z,81.08
2019-05-19T06:03:38.779Z,81.15
2019-05-19T06:06:11.615Z,80.68
2019-05-19T06:08:44.539Z,80.23
2019-05-19T06:11:17.431Z,80.43
2019-05-19T06:13:50.361Z,81.22
2019-05-19T06:16:23.211Z,82.38
2019-05-19T06:18:56.904Z,83.00
2019-05-19T06:21:30.253Z,83.44
2019-05-19T06:24:03.201Z,84.14
2019-05-19T06:26:36.030Z,84.76
2019-05-19T06:29:09.020Z,83.12
2019-05-19T06:31:42.077Z,81.65
2019-05-19T06:34:14.889Z,80.57
2019-05-19T06:36:47.710Z,78.11
2019-05-19T06:39:20.721Z,77.64
2019-05-19T06:41:53.895Z,77.04
2019-05-19T06:44:26.881Z,77.26
2019-05-19T06:46:59.791Z,78.24
2019-05-19T06:49:32.860Z,78.62
2019-05-19T06:52:05.880Z,79.14
2019-05-19T06:54:38.883Z,78.50
2019-05-19T06:57:11.873Z,78.69
2019-05-19T06:59:44.850Z,78.36
2019-05-19T07:02:17.762Z,78.67
2019-05-19T07:04:50.608Z,80.36
2019-05-19T07:07:23.615Z,81.91
2019-05-19T07:09:58.978Z,84.39
2019-05-19T07:12:32.425Z,91.50
2019-05-19T07:21:49.441Z,95.35
2019-05-19T07:24:22.716Z,95.35
2019-05-19T07:26:56.059Z,100.00
2019-05-19T07:29:29.380Z,100.00
2019-05-19T07:32:02.440Z,100.00
2019-05-19T07:34:35.380Z,100.00
2019-05-19T07:37:11.286Z,100.00
2019-05-19T07:39:44.146Z,100.00
2019-05-19T07:42:17.102Z,100.00
2019-05-19T07:44:49.984Z,100.00
2019-05-19T07:47:22.985Z,100.00
2019-05-19T07:49:55.864Z,100.00
2019-05-19T07:52:28.891Z,95.00
2019-05-19T07:55:01.803Z,89.19
2019-05-19T07:57:34.671Z,95.42
2019-05-19T08:00:09.494Z,97.59
2019-05-19T08:02:42.413Z,98.66
2019-05-19T15:03:47.762Z,49.22
2019-05-19T15:06:20.952Z,46.53
2019-05-19T15:08:53.812Z,47.32
2019-05-19T15:11:26.599Z,45.66
2019-05-19T15:13:59.508Z,45.49
2019-05-19T15:16:32.414Z,46.78
2019-05-19T15:19:05.290Z,46.91
2019-05-19T15:21:38.085Z,47.24
2019-05-19T15:24:13.762Z,48.26
2019-05-19T15:26:46.664Z,48.38
2019-05-19T15:29:19.581Z,45.60
2019-05-19T15:31:52.401Z,46.91
2019-05-19T15:34:25.241Z,47.20
2019-05-19T15:36:58.088Z,46.89
2019-05-19T15:39:30.984Z,46.87
2019-05-19T15:42:03.855Z,47.15
2019-05-19T15:44:36.777Z,47.63
2019-05-19T15:47:10.680Z,45.76
2019-05-19T15:49:43.487Z,46.07
2019-05-19T15:52:16.314Z,45.09
2019-05-19T15:54:49.120Z,45.63
2019-05-19T15:57:22.168Z,48.89
2019-05-19T15:59:55.103Z,49.37
2019-05-19T16:02:27.918Z,49.77
2019-05-19T16:05:00.770Z,50.19
2019-05-19T16:07:33.524Z,51.75
2019-05-19T16:10:06.691Z,52.61
2019-05-19T16:12:39.568Z,53.75
2019-05-19T16:15:13.283Z,54.66
2019-05-19T16:17:46.196Z,55.08
2019-05-19T16:20:19.466Z,55.60
2019-05-19T16:22:56.509Z,56.32
2019-05-19T16:25:29.380Z,56.77
2019-05-19T16:28:02.297Z,57.58
2019-05-19T16:30:36.287Z,58.28
2019-05-19T16:33:09.178Z,58.68
2019-05-19T16:35:42.065Z,59.11
2019-05-19T16:38:15.238Z,59.23
2019-05-19T16:40:48.239Z,59.80
2019-05-19T16:43:21.174Z,60.46
2019-05-19T16:45:54.141Z,60.60
2019-05-19T16:48:27.056Z,61.31
2019-05-19T16:51:04.357Z,61.21
2019-05-19T16:53:37.845Z,61.94
2019-05-19T16:56:11.024Z,61.89
2019-05-19T16:58:45.580Z,61.70
2019-05-19T17:01:20.074Z,62.00
2019-05-19T17:03:53.307Z,61.90
2019-05-19T17:06:26.512Z,62.21
2019-05-19T17:08:59.388Z,62.29
2019-05-19T17:11:35.463Z,62.30
2019-05-19T17:14:08.395Z,62.55
2019-05-19T17:16:41.542Z,62.78
2019-05-19T17:19:14.474Z,62.22
2019-05-19T17:21:47.516Z,62.23
2019-05-19T17:24:20.439Z,62.32
2019-05-19T17:26:53.297Z,62.42
2019-05-19T17:29:27.818Z,62.67
2019-05-19T17:32:05.944Z,61.42
2019-05-19T17:34:35.192Z,61.32
2019-05-19T17:37:08.102Z,61.25
2019-05-19T17:39:40.905Z,60.85
2019-05-19T17:42:13.990Z,60.36
2019-05-19T17:44:47.093Z,60.54
2019-05-19T17:47:20.019Z,61.07
2019-05-19T17:49:52.813Z,61.41
2019-05-19T17:52:25.701Z,61.81
2019-05-19T17:54:58.623Z,62.38
2019-05-19T17:57:32.217Z,62.69
2019-05-19T18:00:06.212Z,63.20
2019-05-19T18:02:39.247Z,63.37
2019-05-19T18:05:12.325Z,63.52
2019-05-19T18:07:45.197Z,63.37
2019-05-19T18:10:18.119Z,63.57
2019-05-19T18:12:51.070Z,63.67
2019-05-19T18:15:23.884Z,63.83
2019-05-19T18:17:58.436Z,63.16
2019-05-19T18:20:31.385Z,62.18
2019-05-19T18:23:04.308Z,61.41
2019-05-19T18:25:37.279Z,61.03
2019-05-19T18:28:10.624Z,61.37
2019-05-19T18:30:43.654Z,61.57
2019-05-19T18:33:18.215Z,61.00
2019-05-19T18:35:51.067Z,61.70
2019-05-19T18:38:24.073Z,61.56
2019-05-19T18:40:56.877Z,62.24
2019-05-19T18:43:29.816Z,61.13
2019-05-19T18:46:02.725Z,61.82
2019-05-19T18:48:38.795Z,62.53
2019-05-19T18:51:11.801Z,63.01
2019-05-19T18:53:46.685Z,63.77
2019-05-19T18:56:22.907Z,63.93
2019-05-19T18:58:56.028Z,63.88
2019-05-19T19:01:33.458Z,63.41
2019-05-19T19:04:08.167Z,64.36
2019-05-19T19:06:41.241Z,65.24
2019-05-19T19:09:14.294Z,65.82
2019-05-19T19:11:47.269Z,66.37
2019-05-19T19:14:20.426Z,67.17
2019-05-19T19:16:53.355Z,67.67
2019-05-19T19:19:29.599Z,68.03
2019-05-19T19:22:04.038Z,67.99
2019-05-19T19:24:38.669Z,67.96
2019-05-19T19:27:11.679Z,67.66
2019-05-19T19:29:44.715Z,68.01
2019-05-19T19:32:17.600Z,68.00
2019-05-19T19:34:50.494Z,67.93
2019-05-19T19:37:23.420Z,68.05
2019-05-19T19:39:56.321Z,68.21
2019-05-19T19:42:29.262Z,67.75
2019-05-19T19:45:02.159Z,67.88
2019-05-19T19:47:36.490Z,68.05
2019-05-19T19:50:09.600Z,68.38
2019-05-19T19:52:42.703Z,68.48
2019-05-19T19:55:15.729Z,68.67
2019-05-19T19:57:48.746Z,68.35
2019-05-19T20:00:42.412Z,68.07
2019-05-19T20:03:16.390Z,67.96
2019-05-19T20:05:50.932Z,67.39
2019-05-19T20:08:23.857Z,66.81
2019-05-19T20:10:56.742Z,67.40
2019-05-19T20:13:29.675Z,66.93
2019-05-19T20:16:02.580Z,67.23
2019-05-19T20:18:35.348Z,67.36
2019-05-19T20:21:08.214Z,67.54
2019-05-19T20:23:41.249Z,67.44
2019-05-19T20:26:14.132Z,66.85
2019-05-19T20:28:47.081Z,66.99
2019-05-19T20:31:19.916Z,67.17
2019-05-19T20:33:52.854Z,67.47
2019-05-19T20:36:26.039Z,67.58
2019-05-19T20:38:58.927Z,68.29
2019-05-19T20:41:31.812Z,68.40
2019-05-19T20:44:05.241Z,68.20
2019-05-19T20:46:38.075Z,68.32
2019-05-19T20:49:11.026Z,68.58
2019-05-19T20:51:44.817Z,69.12
2019-05-19T20:54:17.620Z,68.72
2019-05-19T20:56:50.837Z,68.92
2019-05-19T20:59:24.643Z,68.70
2019-05-19T21:01:57.493Z,68.80
2019-05-19T21:04:30.312Z,68.78
2019-05-19T21:07:03.229Z,68.98
2019-05-19T21:09:36.207Z,69.16
2019-05-19T21:12:09.042Z,69.51
2019-05-19T21:14:42.971Z,69.61
2019-05-19T21:17:15.887Z,69.46
2019-05-19T21:19:50.383Z,69.68
2019-05-19T21:22:23.204Z,69.87
2019-05-19T21:24:56.066Z,70.02
2019-05-19T21:27:29.829Z,70.18
2019-05-19T21:30:02.665Z,70.70
2019-05-19T21:32:35.538Z,70.35
2019-05-19T21:35:09.008Z,70.69
2019-05-19T21:37:41.849Z,70.80
2019-05-19T21:40:14.796Z,70.74
2019-05-19T21:42:47.608Z,70.89
2019-05-19T21:45:20.582Z,71.22
2019-05-19T21:47:53.421Z,71.70
2019-05-19T21:50:26.256Z,71.84
2019-05-19T21:52:59.170Z,71.92
2019-05-19T21:55:31.971Z,71.85
2019-05-19T21:58:04.954Z,72.02
2019-05-19T22:00:37.838Z,72.18
2019-05-19T22:03:10.859Z,72.17
2019-05-19T22:05:52.845Z,72.31
2019-05-19T22:08:18.693Z,72.20
2019-05-19T22:10:51.488Z,72.08
2019-05-19T22:13:24.366Z,72.24
2019-05-19T22:16:11.600Z,72.41
2019-05-19T22:18:31.973Z,72.58
2019-05-19T22:21:04.836Z,72.67
2019-05-19T22:23:37.672Z,72.72
2019-05-19T22:26:10.577Z,72.77
2019-05-19T22:28:43.410Z,72.95
2019-05-19T22:31:16.409Z,73.27
2019-05-19T22:33:49.314Z,73.21
2019-05-19T22:36:22.122Z,73.53
2019-05-19T22:38:55.000Z,73.17
2019-05-19T22:41:27.812Z,73.45
2019-05-19T22:44:00.887Z,73.60
2019-05-19T22:46:34.760Z,73.87
2019-05-19T22:49:07.641Z,74.23
2019-05-19T22:51:40.500Z,74.42
2019-05-19T22:54:13.339Z,74.60
2019-05-19T22:56:46.137Z,74.58
2019-05-19T22:59:20.449Z,74.44
2019-05-19T23:01:53.487Z,74.48
2019-05-19T23:04:26.493Z,74.68
2019-05-19T23:06:59.424Z,74.76
2019-05-19T23:09:32.420Z,75.13
2019-05-19T23:12:05.213Z,75.30
2019-05-19T23:14:39.135Z,75.50
2019-05-19T23:17:11.939Z,75.90
2019-05-19T23:19:45.032Z,76.15
2019-05-19T23:22:17.848Z,76.29
2019-05-19T23:24:51.957Z,76.16
2019-05-19T23:27:24.847Z,76.35
2019-05-19T23:29:57.774Z,76.49
2019-05-19T23:32:30.640Z,77.10
2019-05-19T23:35:03.493Z,77.25
2019-05-19T23:37:36.387Z,77.41
2019-05-19T23:40:10.498Z,77.39
2019-05-19T23:42:43.383Z,77.61
2019-05-19T23:45:16.759Z,77.66
2019-05-19T23:47:49.589Z,77.83
2019-05-19T23:50:22.383Z,77.88
2019-05-19T23:52:55.214Z,77.92
2019-05-19T23:55:27.995Z,77.86
2019-05-19T23:58:00.929Z,77.88
